sensor_id;sensor_type;location;lat;lon;timestamp;P1;durP1;ratioP1;P2;durP2;ratioP2
42964;SDS011;28604;51.204;22.552;2022-10-22T00:01:37;8.77;;;5.45;;
42964;SDS011;28604;51.204;22.552;2022-10-22T00:04:03;11.55;;;6.45;;
42964;SDS011;28604;51.204;22.552;2022-10-22T00:06:29;7.38;;;4.95;;
42964;SDS011;28604;51.204;22.552;2022-10-22T00:08:55;12.68;;;6.63;;
42964;SDS011;28604;51.204;22.552;2022-10-22T00:11:21;9.82;;;6.03;;
42964;SDS011;28604;51.204;22.552;2022-10-22T00:13:47;12.43;;;6.10;;
42964;SDS011;28604;51.204;22.552;2022-10-22T00:16:13;8.35;;;5.90;;
42964;SDS011;28604;51.204;22.552;2022-10-22T00:18:39;11.02;;;5.75;;
42964;SDS011;28604;51.204;22.552;2022-10-22T00:21:05;11.15;;;5.35;;
42964;SDS011;28604;51.204;22.552;2022-10-22T00:23:32;7.97;;;4.88;;
42964;SDS011;28604;51.204;22.552;2022-10-22T00:25:59;11.10;;;5.32;;
42964;SDS011;28604;51.204;22.552;2022-10-22T00:28:25;8.95;;;4.88;;
42964;SDS011;28604;51.204;22.552;2022-10-22T00:30:54;6.45;;;4.55;;
42964;SDS011;28604;51.204;22.552;2022-10-22T00:35:50;8.68;;;4.43;;
42964;SDS011;28604;51.204;22.552;2022-10-22T00:38:16;5.32;;;4.47;;
42964;SDS011;28604;51.204;22.552;2022-10-22T00:40:42;7.03;;;4.88;;
42964;SDS011;28604;51.204;22.552;2022-10-22T00:43:10;10.73;;;5.28;;
42964;SDS011;28604;51.204;22.552;2022-10-22T00:45:36;8.07;;;4.53;;
42964;SDS011;28604;51.204;22.552;2022-10-22T00:48:47;9.32;;;4.28;;
42964;SDS011;28604;51.204;22.552;2022-10-22T00:50:53;12.82;;;5.18;;
42964;SDS011;28604;51.204;22.552;2022-10-22T00:53:26;7.07;;;4.47;;
42964;SDS011;28604;51.204;22.552;2022-10-22T00:55:56;5.13;;;4.03;;
42964;SDS011;28604;51.204;22.552;2022-10-22T00:58:22;9.40;;;5.07;;
42964;SDS011;28604;51.204;22.552;2022-10-22T01:00:51;10.25;;;4.22;;
42964;SDS011;28604;51.204;22.552;2022-10-22T01:03:19;5.15;;;4.32;;
42964;SDS011;28604;51.204;22.552;2022-10-22T01:05:47;7.47;;;4.47;;
42964;SDS011;28604;51.204;22.552;2022-10-22T01:08:22;10.07;;;4.70;;
42964;SDS011;28604;51.204;22.552;2022-10-22T01:10:56;7.25;;;4.10;;
42964;SDS011;28604;51.204;22.552;2022-10-22T01:13:36;6.28;;;4.30;;
42964;SDS011;28604;51.204;22.552;2022-10-22T01:16:34;5.95;;;4.45;;
42964;SDS011;28604;51.204;22.552;2022-10-22T01:21:34;8.45;;;3.95;;
42964;SDS011;28604;51.204;22.552;2022-10-22T01:26:52;6.75;;;4.80;;
42964;SDS011;28604;51.204;22.552;2022-10-22T01:29:29;9.45;;;5.07;;
42964;SDS011;28604;51.204;22.552;2022-10-22T01:32:00;8.32;;;4.28;;
42964;SDS011;28604;51.204;22.552;2022-10-22T01:34:30;5.32;;;4.00;;
42964;SDS011;28604;51.204;22.552;2022-10-22T01:36:58;6.28;;;4.75;;
42964;SDS011;28604;51.204;22.552;2022-10-22T01:39:26;7.50;;;5.07;;
42964;SDS011;28604;51.204;22.552;2022-10-22T01:41:54;9.05;;;4.43;;
42964;SDS011;28604;51.204;22.552;2022-10-22T01:44:28;10.68;;;4.65;;
42964;SDS011;28604;51.204;22.552;2022-10-22T01:47:13;10.60;;;5.28;;
42964;SDS011;28604;51.204;22.552;2022-10-22T01:55:46;6.95;;;4.28;;
42964;SDS011;28604;51.204;22.552;2022-10-22T01:58:35;7.88;;;4.28;;
42964;SDS011;28604;51.204;22.552;2022-10-22T02:04:29;9.95;;;4.72;;
42964;SDS011;28604;51.204;22.552;2022-10-22T02:06:57;13.65;;;4.97;;
42964;SDS011;28604;51.204;22.552;2022-10-22T02:09:26;10.10;;;5.13;;
42964;SDS011;28604;51.204;22.552;2022-10-22T02:11:54;10.75;;;4.97;;
42964;SDS011;28604;51.204;22.552;2022-10-22T02:14:22;8.40;;;4.40;;
42964;SDS011;28604;51.204;22.552;2022-10-22T02:16:52;7.28;;;4.70;;
42964;SDS011;28604;51.204;22.552;2022-10-22T02:19:24;7.30;;;4.50;;
42964;SDS011;28604;51.204;22.552;2022-10-22T02:21:52;6.82;;;5.25;;
42964;SDS011;28604;51.204;22.552;2022-10-22T02:24:19;13.60;;;5.20;;
42964;SDS011;28604;51.204;22.552;2022-10-22T02:29:52;12.95;;;4.68;;
42964;SDS011;28604;51.204;22.552;2022-10-22T02:32:29;6.82;;;3.95;;
42964;SDS011;28604;51.204;22.552;2022-10-22T02:35:05;8.55;;;4.45;;
42964;SDS011;28604;51.204;22.552;2022-10-22T02:37:33;9.70;;;4.43;;
42964;SDS011;28604;51.204;22.552;2022-10-22T02:39:59;5.35;;;3.72;;
42964;SDS011;28604;51.204;22.552;2022-10-22T02:42:25;8.73;;;4.75;;
42964;SDS011;28604;51.204;22.552;2022-10-22T02:44:53;10.10;;;4.72;;
42964;SDS011;28604;51.204;22.552;2022-10-22T02:47:19;9.10;;;4.88;;
42964;SDS011;28604;51.204;22.552;2022-10-22T02:49:45;9.30;;;4.25;;
42964;SDS011;28604;51.204;22.552;2022-10-22T02:52:11;10.93;;;4.65;;
42964;SDS011;28604;51.204;22.552;2022-10-22T02:54:37;4.65;;;3.97;;
42964;SDS011;28604;51.204;22.552;2022-10-22T02:57:02;5.35;;;4.57;;
42964;SDS011;28604;51.204;22.552;2022-10-22T02:59:28;7.63;;;4.05;;
42964;SDS011;28604;51.204;22.552;2022-10-22T03:01:54;6.22;;;4.05;;
42964;SDS011;28604;51.204;22.552;2022-10-22T03:04:20;6.00;;;4.18;;
42964;SDS011;28604;51.204;22.552;2022-10-22T03:06:46;5.45;;;3.95;;
42964;SDS011;28604;51.204;22.552;2022-10-22T03:09:13;6.10;;;3.95;;
42964;SDS011;28604;51.204;22.552;2022-10-22T03:11:39;11.32;;;4.60;;
42964;SDS011;28604;51.204;22.552;2022-10-22T03:14:05;6.38;;;3.92;;
42964;SDS011;28604;51.204;22.552;2022-10-22T03:16:31;5.70;;;4.07;;
42964;SDS011;28604;51.204;22.552;2022-10-22T03:18:57;5.85;;;4.15;;
42964;SDS011;28604;51.204;22.552;2022-10-22T03:21:33;6.78;;;3.85;;
42964;SDS011;28604;51.204;22.552;2022-10-22T03:24:03;7.10;;;5.07;;
42964;SDS011;28604;51.204;22.552;2022-10-22T03:26:33;8.18;;;4.15;;
42964;SDS011;28604;51.204;22.552;2022-10-22T03:29:00;8.50;;;4.88;;
42964;SDS011;28604;51.204;22.552;2022-10-22T03:31:26;6.53;;;3.40;;
42964;SDS011;28604;51.204;22.552;2022-10-22T03:33:52;5.32;;;4.03;;
42964;SDS011;28604;51.204;22.552;2022-10-22T03:36:18;5.13;;;3.70;;
42964;SDS011;28604;51.204;22.552;2022-10-22T03:38:44;5.28;;;4.00;;
42964;SDS011;28604;51.204;22.552;2022-10-22T03:41:10;12.00;;;3.75;;
42964;SDS011;28604;51.204;22.552;2022-10-22T03:43:36;5.03;;;3.53;;
42964;SDS011;28604;51.204;22.552;2022-10-22T03:46:03;5.97;;;4.03;;
42964;SDS011;28604;51.204;22.552;2022-10-22T03:48:29;5.72;;;4.22;;
42964;SDS011;28604;51.204;22.552;2022-10-22T03:50:55;4.95;;;3.65;;
42964;SDS011;28604;51.204;22.552;2022-10-22T03:53:21;5.97;;;4.05;;
42964;SDS011;28604;51.204;22.552;2022-10-22T03:55:46;6.68;;;4.32;;
42964;SDS011;28604;51.204;22.552;2022-10-22T03:58:13;6.75;;;3.55;;
42964;SDS011;28604;51.204;22.552;2022-10-22T04:00:38;6.50;;;4.00;;
42964;SDS011;28604;51.204;22.552;2022-10-22T04:03:04;6.00;;;3.60;;
42964;SDS011;28604;51.204;22.552;2022-10-22T04:05:31;13.57;;;3.92;;
42964;SDS011;28604;51.204;22.552;2022-10-22T04:07:58;5.65;;;4.07;;
42964;SDS011;28604;51.204;22.552;2022-10-22T04:10:24;11.60;;;4.38;;
42964;SDS011;28604;51.204;22.552;2022-10-22T04:12:50;4.93;;;3.60;;
42964;SDS011;28604;51.204;22.552;2022-10-22T04:15:16;5.75;;;4.40;;
42964;SDS011;28604;51.204;22.552;2022-10-22T04:17:42;10.80;;;3.97;;
42964;SDS011;28604;51.204;22.552;2022-10-22T04:20:08;8.57;;;4.60;;
42964;SDS011;28604;51.204;22.552;2022-10-22T04:22:35;5.07;;;3.90;;
42964;SDS011;28604;51.204;22.552;2022-10-22T04:25:02;11.45;;;5.63;;
42964;SDS011;28604;51.204;22.552;2022-10-22T04:30:18;3.83;;;3.53;;
42964;SDS011;28604;51.204;22.552;2022-10-22T04:32:44;5.68;;;4.13;;
42964;SDS011;28604;51.204;22.552;2022-10-22T04:35:10;7.57;;;4.60;;
42964;SDS011;28604;51.204;22.552;2022-10-22T04:37:36;6.88;;;4.20;;
42964;SDS011;28604;51.204;22.552;2022-10-22T04:40:02;7.13;;;3.92;;
42964;SDS011;28604;51.204;22.552;2022-10-22T04:42:29;6.32;;;4.68;;
42964;SDS011;28604;51.204;22.552;2022-10-22T04:44:55;9.77;;;4.05;;
42964;SDS011;28604;51.204;22.552;2022-10-22T04:47:21;10.80;;;4.50;;
42964;SDS011;28604;51.204;22.552;2022-10-22T04:49:47;6.47;;;4.28;;
42964;SDS011;28604;51.204;22.552;2022-10-22T04:52:13;8.98;;;5.45;;
42964;SDS011;28604;51.204;22.552;2022-10-22T04:54:39;11.63;;;4.90;;
42964;SDS011;28604;51.204;22.552;2022-10-22T04:57:05;6.65;;;3.42;;
42964;SDS011;28604;51.204;22.552;2022-10-22T04:59:31;7.57;;;3.85;;
42964;SDS011;28604;51.204;22.552;2022-10-22T05:01:57;6.47;;;4.45;;
42964;SDS011;28604;51.204;22.552;2022-10-22T05:04:22;9.57;;;4.35;;
42964;SDS011;28604;51.204;22.552;2022-10-22T05:06:48;8.15;;;3.65;;
42964;SDS011;28604;51.204;22.552;2022-10-22T05:09:16;11.82;;;5.03;;
42964;SDS011;28604;51.204;22.552;2022-10-22T05:11:44;6.65;;;3.95;;
42964;SDS011;28604;51.204;22.552;2022-10-22T05:14:13;8.68;;;4.07;;
42964;SDS011;28604;51.204;22.552;2022-10-22T05:16:41;10.55;;;4.32;;
42964;SDS011;28604;51.204;22.552;2022-10-22T05:19:07;5.80;;;4.45;;
42964;SDS011;28604;51.204;22.552;2022-10-22T05:21:38;5.10;;;3.83;;
42964;SDS011;28604;51.204;22.552;2022-10-22T05:24:04;6.35;;;4.28;;
42964;SDS011;28604;51.204;22.552;2022-10-22T05:26:31;5.82;;;4.63;;
42964;SDS011;28604;51.204;22.552;2022-10-22T05:28:56;5.28;;;4.32;;
42964;SDS011;28604;51.204;22.552;2022-10-22T05:31:23;6.07;;;4.22;;
42964;SDS011;28604;51.204;22.552;2022-10-22T05:33:49;7.65;;;4.57;;
42964;SDS011;28604;51.204;22.552;2022-10-22T05:36:17;5.90;;;5.18;;
42964;SDS011;28604;51.204;22.552;2022-10-22T05:38:44;6.32;;;4.80;;
42964;SDS011;28604;51.204;22.552;2022-10-22T05:41:12;10.10;;;5.22;;
42964;SDS011;28604;51.204;22.552;2022-10-22T05:43:42;9.80;;;5.28;;
42964;SDS011;28604;51.204;22.552;2022-10-22T05:46:10;7.93;;;5.00;;
42964;SDS011;28604;51.204;22.552;2022-10-22T05:48:38;12.88;;;5.38;;
42964;SDS011;28604;51.204;22.552;2022-10-22T05:51:05;7.60;;;4.88;;
42964;SDS011;28604;51.204;22.552;2022-10-22T05:53:35;8.25;;;5.55;;
42964;SDS011;28604;51.204;22.552;2022-10-22T05:58:42;7.80;;;5.13;;
42964;SDS011;28604;51.204;22.552;2022-10-22T06:01:13;7.63;;;5.10;;
42964;SDS011;28604;51.204;22.552;2022-10-22T06:03:42;7.60;;;5.18;;
42964;SDS011;28604;51.204;22.552;2022-10-22T06:06:25;11.95;;;5.13;;
42964;SDS011;28604;51.204;22.552;2022-10-22T06:11:41;8.18;;;5.47;;
42964;SDS011;28604;51.204;22.552;2022-10-22T06:14:08;9.18;;;5.22;;
42964;SDS011;28604;51.204;22.552;2022-10-22T06:16:34;6.70;;;4.88;;
42964;SDS011;28604;51.204;22.552;2022-10-22T06:19:00;6.60;;;5.57;;
42964;SDS011;28604;51.204;22.552;2022-10-22T06:21:27;10.90;;;5.30;;
42964;SDS011;28604;51.204;22.552;2022-10-22T06:23:54;9.65;;;5.68;;
42964;SDS011;28604;51.204;22.552;2022-10-22T06:26:21;9.63;;;5.55;;
42964;SDS011;28604;51.204;22.552;2022-10-22T06:28:47;8.85;;;5.50;;
42964;SDS011;28604;51.204;22.552;2022-10-22T06:31:13;7.32;;;5.60;;
42964;SDS011;28604;51.204;22.552;2022-10-22T06:33:39;11.02;;;5.18;;
42964;SDS011;28604;51.204;22.552;2022-10-22T06:36:12;7.95;;;5.60;;
42964;SDS011;28604;51.204;22.552;2022-10-22T06:38:40;7.40;;;5.43;;
42964;SDS011;28604;51.204;22.552;2022-10-22T06:41:08;7.15;;;5.65;;
42964;SDS011;28604;51.204;22.552;2022-10-22T06:43:36;12.95;;;5.05;;
42964;SDS011;28604;51.204;22.552;2022-10-22T06:46:03;10.48;;;4.95;;
42964;SDS011;28604;51.204;22.552;2022-10-22T06:48:31;10.25;;;5.40;;
42964;SDS011;28604;51.204;22.552;2022-10-22T06:51:01;11.80;;;6.18;;
42964;SDS011;28604;51.204;22.552;2022-10-22T06:53:32;13.02;;;5.93;;
42964;SDS011;28604;51.204;22.552;2022-10-22T06:56:06;8.85;;;6.28;;
42964;SDS011;28604;51.204;22.552;2022-10-22T06:58:37;8.43;;;5.43;;
42964;SDS011;28604;51.204;22.552;2022-10-22T07:01:05;12.27;;;6.18;;
42964;SDS011;28604;51.204;22.552;2022-10-22T07:03:35;11.77;;;5.33;;
42964;SDS011;28604;51.204;22.552;2022-10-22T07:06:03;7.80;;;5.57;;
42964;SDS011;28604;51.204;22.552;2022-10-22T07:08:31;10.38;;;5.82;;
42964;SDS011;28604;51.204;22.552;2022-10-22T07:11:04;11.40;;;5.55;;
42964;SDS011;28604;51.204;22.552;2022-10-22T07:13:37;8.40;;;5.75;;
42964;SDS011;28604;51.204;22.552;2022-10-22T07:16:04;13.80;;;6.10;;
42964;SDS011;28604;51.204;22.552;2022-10-22T07:18:31;9.50;;;5.50;;
42964;SDS011;28604;51.204;22.552;2022-10-22T07:20:59;11.23;;;5.53;;
42964;SDS011;28604;51.204;22.552;2022-10-22T07:23:25;9.48;;;6.18;;
42964;SDS011;28604;51.204;22.552;2022-10-22T07:25:51;10.40;;;5.82;;
42964;SDS011;28604;51.204;22.552;2022-10-22T07:28:17;10.98;;;6.18;;
42964;SDS011;28604;51.204;22.552;2022-10-22T07:30:43;8.45;;;5.72;;
42964;SDS011;28604;51.204;22.552;2022-10-22T07:33:10;12.00;;;9.30;;
42964;SDS011;28604;51.204;22.552;2022-10-22T07:35:37;11.68;;;7.03;;
42964;SDS011;28604;51.204;22.552;2022-10-22T07:38:04;10.35;;;7.13;;
42964;SDS011;28604;51.204;22.552;2022-10-22T07:40:31;11.10;;;6.63;;
42964;SDS011;28604;51.204;22.552;2022-10-22T07:42:57;12.55;;;6.75;;
42964;SDS011;28604;51.204;22.552;2022-10-22T07:45:23;10.63;;;7.05;;
42964;SDS011;28604;51.204;22.552;2022-10-22T07:47:49;9.88;;;6.80;;
42964;SDS011;28604;51.204;22.552;2022-10-22T07:50:15;10.98;;;6.70;;
42964;SDS011;28604;51.204;22.552;2022-10-22T07:52:41;13.15;;;7.30;;
42964;SDS011;28604;51.204;22.552;2022-10-22T07:57:38;13.80;;;7.68;;
42964;SDS011;28604;51.204;22.552;2022-10-22T08:00:05;14.68;;;8.70;;
42964;SDS011;28604;51.204;22.552;2022-10-22T08:02:37;13.48;;;7.55;;
42964;SDS011;28604;51.204;22.552;2022-10-22T08:05:03;16.60;;;8.43;;
42964;SDS011;28604;51.204;22.552;2022-10-22T08:07:29;12.45;;;7.75;;
42964;SDS011;28604;51.204;22.552;2022-10-22T08:09:55;11.65;;;7.68;;
42964;SDS011;28604;51.204;22.552;2022-10-22T08:12:21;15.52;;;7.65;;
42964;SDS011;28604;51.204;22.552;2022-10-22T08:14:47;11.75;;;7.63;;
42964;SDS011;28604;51.204;22.552;2022-10-22T08:17:13;12.90;;;8.65;;
42964;SDS011;28604;51.204;22.552;2022-10-22T08:19:39;12.40;;;7.75;;
42964;SDS011;28604;51.204;22.552;2022-10-22T08:22:05;14.07;;;8.20;;
42964;SDS011;28604;51.204;22.552;2022-10-22T08:24:31;17.33;;;8.45;;
42964;SDS011;28604;51.204;22.552;2022-10-22T08:26:57;13.98;;;9.10;;
42964;SDS011;28604;51.204;22.552;2022-10-22T08:29:23;13.93;;;8.15;;
42964;SDS011;28604;51.204;22.552;2022-10-22T08:31:51;16.35;;;8.52;;
42964;SDS011;28604;51.204;22.552;2022-10-22T08:34:18;13.48;;;9.13;;
42964;SDS011;28604;51.204;22.552;2022-10-22T08:36:44;12.30;;;8.57;;
42964;SDS011;28604;51.204;22.552;2022-10-22T08:39:10;16.20;;;9.48;;
42964;SDS011;28604;51.204;22.552;2022-10-22T08:41:50;13.75;;;8.70;;
42964;SDS011;28604;51.204;22.552;2022-10-22T08:48:03;14.18;;;9.15;;
42964;SDS011;28604;51.204;22.552;2022-10-22T08:50:29;17.83;;;9.75;;
42964;SDS011;28604;51.204;22.552;2022-10-22T08:53:00;15.27;;;9.00;;
42964;SDS011;28604;51.204;22.552;2022-10-22T08:55:29;13.35;;;9.55;;
42964;SDS011;28604;51.204;22.552;2022-10-22T08:58:02;20.48;;;8.65;;
42964;SDS011;28604;51.204;22.552;2022-10-22T09:00:46;14.40;;;9.23;;
42964;SDS011;28604;51.204;22.552;2022-10-22T09:03:25;14.38;;;8.18;;
42964;SDS011;28604;51.204;22.552;2022-10-22T09:08:49;11.30;;;8.30;;
42964;SDS011;28604;51.204;22.552;2022-10-22T09:13:50;13.73;;;7.95;;
42964;SDS011;28604;51.204;22.552;2022-10-22T09:24:32;17.75;;;9.57;;
42964;SDS011;28604;51.204;22.552;2022-10-22T09:27:11;13.75;;;9.52;;
42964;SDS011;28604;51.204;22.552;2022-10-22T09:29:39;15.50;;;10.15;;
42964;SDS011;28604;51.204;22.552;2022-10-22T09:32:05;14.60;;;9.93;;
42964;SDS011;28604;51.204;22.552;2022-10-22T09:34:31;21.65;;;10.60;;
42964;SDS011;28604;51.204;22.552;2022-10-22T09:36:58;17.95;;;10.30;;
42964;SDS011;28604;51.204;22.552;2022-10-22T09:39:27;14.27;;;9.05;;
42964;SDS011;28604;51.204;22.552;2022-10-22T09:41:59;14.02;;;9.70;;
42964;SDS011;28604;51.204;22.552;2022-10-22T09:44:26;11.93;;;9.82;;
42964;SDS011;28604;51.204;22.552;2022-10-22T09:46:52;16.27;;;10.00;;
42964;SDS011;28604;51.204;22.552;2022-10-22T09:49:18;14.15;;;10.60;;
42964;SDS011;28604;51.204;22.552;2022-10-22T09:51:54;14.70;;;11.23;;
42964;SDS011;28604;51.204;22.552;2022-10-22T09:54:23;18.92;;;10.55;;
42964;SDS011;28604;51.204;22.552;2022-10-22T09:57:02;16.58;;;10.35;;
42964;SDS011;28604;51.204;22.552;2022-10-22T09:59:31;14.80;;;9.13;;
42964;SDS011;28604;51.204;22.552;2022-10-22T10:02:14;18.42;;;9.75;;
42964;SDS011;28604;51.204;22.552;2022-10-22T10:04:50;15.93;;;9.10;;
42964;SDS011;28604;51.204;22.552;2022-10-22T10:07:29;14.27;;;9.98;;
42964;SDS011;28604;51.204;22.552;2022-10-22T10:09:56;17.38;;;10.75;;
42964;SDS011;28604;51.204;22.552;2022-10-22T10:20:43;17.58;;;10.35;;
42964;SDS011;28604;51.204;22.552;2022-10-22T10:23:22;21.05;;;11.27;;
42964;SDS011;28604;51.204;22.552;2022-10-22T10:26:33;15.93;;;10.30;;
42964;SDS011;28604;51.204;22.552;2022-10-22T10:37:28;17.15;;;10.38;;
42964;SDS011;28604;51.204;22.552;2022-10-22T10:42:54;16.55;;;10.43;;
42964;SDS011;28604;51.204;22.552;2022-10-22T10:48:54;17.63;;;10.45;;
42964;SDS011;28604;51.204;22.552;2022-10-22T10:51:44;15.88;;;10.77;;
42964;SDS011;28604;51.204;22.552;2022-10-22T10:56:54;19.58;;;12.77;;
42964;SDS011;28604;51.204;22.552;2022-10-22T11:02:12;19.52;;;11.68;;
42964;SDS011;28604;51.204;22.552;2022-10-22T11:07:55;18.60;;;11.88;;
42964;SDS011;28604;51.204;22.552;2022-10-22T11:16:19;15.65;;;11.18;;
42964;SDS011;28604;51.204;22.552;2022-10-22T11:18:53;20.92;;;12.60;;
42964;SDS011;28604;51.204;22.552;2022-10-22T11:21:28;18.45;;;11.88;;
42964;SDS011;28604;51.204;22.552;2022-10-22T11:24:02;19.40;;;11.15;;
42964;SDS011;28604;51.204;22.552;2022-10-22T11:26:50;23.90;;;12.45;;
42964;SDS011;28604;51.204;22.552;2022-10-22T11:29:25;19.20;;;11.82;;
42964;SDS011;28604;51.204;22.552;2022-10-22T11:31:56;18.77;;;12.43;;
42964;SDS011;28604;51.204;22.552;2022-10-22T11:34:25;18.58;;;11.90;;
42964;SDS011;28604;51.204;22.552;2022-10-22T11:36:57;15.48;;;11.40;;
42964;SDS011;28604;51.204;22.552;2022-10-22T11:39:28;18.45;;;13.05;;
42964;SDS011;28604;51.204;22.552;2022-10-22T11:41:56;19.63;;;12.25;;
42964;SDS011;28604;51.204;22.552;2022-10-22T11:44:23;18.25;;;10.95;;
42964;SDS011;28604;51.204;22.552;2022-10-22T11:46:57;14.95;;;10.82;;
42964;SDS011;28604;51.204;22.552;2022-10-22T11:49:43;16.52;;;10.40;;
42964;SDS011;28604;51.204;22.552;2022-10-22T11:54:53;18.42;;;10.57;;
42964;SDS011;28604;51.204;22.552;2022-10-22T11:57:21;18.38;;;11.88;;
42964;SDS011;28604;51.204;22.552;2022-10-22T11:59:55;18.63;;;11.57;;
42964;SDS011;28604;51.204;22.552;2022-10-22T12:07:52;18.77;;;11.45;;
42964;SDS011;28604;51.204;22.552;2022-10-22T12:10:56;18.75;;;12.10;;
42964;SDS011;28604;51.204;22.552;2022-10-22T12:16:34;18.92;;;10.85;;
42964;SDS011;28604;51.204;22.552;2022-10-22T12:19:10;20.75;;;12.68;;
42964;SDS011;28604;51.204;22.552;2022-10-22T12:24:33;19.98;;;10.70;;
42964;SDS011;28604;51.204;22.552;2022-10-22T12:27:02;19.40;;;12.07;;
42964;SDS011;28604;51.204;22.552;2022-10-22T12:29:29;18.65;;;11.45;;
42964;SDS011;28604;51.204;22.552;2022-10-22T12:32:00;22.75;;;13.48;;
42964;SDS011;28604;51.204;22.552;2022-10-22T12:34:27;29.63;;;13.98;;
42964;SDS011;28604;51.204;22.552;2022-10-22T12:36:53;20.98;;;12.93;;
42964;SDS011;28604;51.204;22.552;2022-10-22T12:39:28;29.73;;;15.02;;
42964;SDS011;28604;51.204;22.552;2022-10-22T12:41:57;28.23;;;14.45;;
42964;SDS011;28604;51.204;22.552;2022-10-22T12:44:23;33.28;;;16.80;;
42964;SDS011;28604;51.204;22.552;2022-10-22T12:46:49;34.88;;;16.25;;
42964;SDS011;28604;51.204;22.552;2022-10-22T12:49:22;33.03;;;17.80;;
42964;SDS011;28604;51.204;22.552;2022-10-22T12:51:52;33.45;;;18.02;;
42964;SDS011;28604;51.204;22.552;2022-10-22T12:54:23;33.17;;;16.83;;
42964;SDS011;28604;51.204;22.552;2022-10-22T12:56:52;36.47;;;20.85;;
42964;SDS011;28604;51.204;22.552;2022-10-22T12:59:21;39.88;;;20.90;;
42964;SDS011;28604;51.204;22.552;2022-10-22T13:01:59;27.88;;;16.10;;
42964;SDS011;28604;51.204;22.552;2022-10-22T13:12:24;32.40;;;18.85;;
42964;SDS011;28604;51.204;22.552;2022-10-22T13:14:51;35.00;;;19.33;;
42964;SDS011;28604;51.204;22.552;2022-10-22T13:17:37;37.97;;;19.23;;
42964;SDS011;28604;51.204;22.552;2022-10-22T13:20:14;28.20;;;16.60;;
42964;SDS011;28604;51.204;22.552;2022-10-22T13:22:52;33.83;;;17.20;;
42964;SDS011;28604;51.204;22.552;2022-10-22T13:25:29;32.80;;;16.65;;
42964;SDS011;28604;51.204;22.552;2022-10-22T13:27:57;25.48;;;16.27;;
42964;SDS011;28604;51.204;22.552;2022-10-22T13:30:28;29.95;;;17.08;;
42964;SDS011;28604;51.204;22.552;2022-10-22T13:32:58;40.72;;;19.38;;
42964;SDS011;28604;51.204;22.552;2022-10-22T13:35:27;42.47;;;19.90;;
42964;SDS011;28604;51.204;22.552;2022-10-22T13:37:57;46.58;;;20.58;;
42964;SDS011;28604;51.204;22.552;2022-10-22T13:40:24;36.33;;;20.25;;
42964;SDS011;28604;51.204;22.552;2022-10-22T13:42:51;35.63;;;21.17;;
42964;SDS011;28604;51.204;22.552;2022-10-22T13:45:17;40.10;;;21.50;;
42964;SDS011;28604;51.204;22.552;2022-10-22T13:47:50;37.78;;;20.90;;
42964;SDS011;28604;51.204;22.552;2022-10-22T13:50:17;41.05;;;21.20;;
42964;SDS011;28604;51.204;22.552;2022-10-22T13:52:46;39.45;;;21.98;;
42964;SDS011;28604;51.204;22.552;2022-10-22T13:55:17;31.70;;;19.92;;
42964;SDS011;28604;51.204;22.552;2022-10-22T13:57:45;33.45;;;17.20;;
42964;SDS011;28604;51.204;22.552;2022-10-22T14:00:15;30.00;;;16.23;;
42964;SDS011;28604;51.204;22.552;2022-10-22T14:02:43;26.40;;;16.40;;
42964;SDS011;28604;51.204;22.552;2022-10-22T14:05:12;36.92;;;18.50;;
42964;SDS011;28604;51.204;22.552;2022-10-22T14:07:39;31.23;;;17.52;;
42964;SDS011;28604;51.204;22.552;2022-10-22T14:12:47;39.92;;;24.23;;
42964;SDS011;28604;51.204;22.552;2022-10-22T14:15:14;37.53;;;20.05;;
42964;SDS011;28604;51.204;22.552;2022-10-22T14:17:58;31.95;;;19.35;;
42964;SDS011;28604;51.204;22.552;2022-10-22T14:20:28;25.13;;;17.13;;
42964;SDS011;28604;51.204;22.552;2022-10-22T14:22:56;29.48;;;16.35;;
42964;SDS011;28604;51.204;22.552;2022-10-22T14:25:27;33.42;;;17.10;;
42964;SDS011;28604;51.204;22.552;2022-10-22T14:27:55;39.92;;;19.60;;
42964;SDS011;28604;51.204;22.552;2022-10-22T14:30:22;34.30;;;19.30;;
42964;SDS011;28604;51.204;22.552;2022-10-22T14:32:50;35.47;;;20.65;;
42964;SDS011;28604;51.204;22.552;2022-10-22T14:35:17;36.63;;;21.25;;
42964;SDS011;28604;51.204;22.552;2022-10-22T14:37:46;36.42;;;19.85;;
42964;SDS011;28604;51.204;22.552;2022-10-22T14:40:13;40.08;;;22.33;;
42964;SDS011;28604;51.204;22.552;2022-10-22T14:42:42;42.55;;;20.85;;
42964;SDS011;28604;51.204;22.552;2022-10-22T14:45:22;36.83;;;20.27;;
42964;SDS011;28604;51.204;22.552;2022-10-22T14:47:49;34.13;;;19.63;;
42964;SDS011;28604;51.204;22.552;2022-10-22T14:50:16;39.33;;;21.55;;
42964;SDS011;28604;51.204;22.552;2022-10-22T14:52:43;35.65;;;21.55;;
42964;SDS011;28604;51.204;22.552;2022-10-22T14:55:10;33.78;;;19.10;;
42964;SDS011;28604;51.204;22.552;2022-10-22T14:57:37;33.88;;;20.67;;
42964;SDS011;28604;51.204;22.552;2022-10-22T15:00:04;31.33;;;20.80;;
42964;SDS011;28604;51.204;22.552;2022-10-22T15:02:32;33.47;;;20.65;;
42964;SDS011;28604;51.204;22.552;2022-10-22T15:04:58;35.97;;;20.33;;
42964;SDS011;28604;51.204;22.552;2022-10-22T15:07:24;35.65;;;20.55;;
42964;SDS011;28604;51.204;22.552;2022-10-22T15:09:51;35.40;;;19.92;;
42964;SDS011;28604;51.204;22.552;2022-10-22T15:12:18;32.30;;;20.25;;
42964;SDS011;28604;51.204;22.552;2022-10-22T15:14:47;35.20;;;21.38;;
42964;SDS011;28604;51.204;22.552;2022-10-22T15:17:14;34.92;;;20.27;;
42964;SDS011;28604;51.204;22.552;2022-10-22T15:19:41;36.60;;;22.30;;
42964;SDS011;28604;51.204;22.552;2022-10-22T15:22:08;39.30;;;22.60;;
42964;SDS011;28604;51.204;22.552;2022-10-22T15:24:35;40.33;;;23.85;;
42964;SDS011;28604;51.204;22.552;2022-10-22T15:27:01;42.97;;;24.38;;
42964;SDS011;28604;51.204;22.552;2022-10-22T15:29:30;35.65;;;22.13;;
42964;SDS011;28604;51.204;22.552;2022-10-22T15:31:57;40.13;;;26.00;;
42964;SDS011;28604;51.204;22.552;2022-10-22T15:34:29;44.00;;;24.95;;
42964;SDS011;28604;51.204;22.552;2022-10-22T15:36:57;44.85;;;27.17;;
42964;SDS011;28604;51.204;22.552;2022-10-22T15:39:24;40.72;;;27.13;;
42964;SDS011;28604;51.204;22.552;2022-10-22T15:41:51;48.63;;;26.48;;
42964;SDS011;28604;51.204;22.552;2022-10-22T15:44:19;43.60;;;25.23;;
42964;SDS011;28604;51.204;22.552;2022-10-22T15:46:47;38.25;;;25.40;;
42964;SDS011;28604;51.204;22.552;2022-10-22T15:49:13;40.03;;;26.20;;
42964;SDS011;28604;51.204;22.552;2022-10-22T15:51:39;44.50;;;24.98;;
42964;SDS011;28604;51.204;22.552;2022-10-22T15:54:05;41.25;;;27.20;;
42964;SDS011;28604;51.204;22.552;2022-10-22T15:56:31;36.30;;;23.85;;
42964;SDS011;28604;51.204;22.552;2022-10-22T15:58:58;49.53;;;27.02;;
42964;SDS011;28604;51.204;22.552;2022-10-22T16:01:27;43.25;;;27.35;;
42964;SDS011;28604;51.204;22.552;2022-10-22T16:03:52;44.38;;;28.15;;
42964;SDS011;28604;51.204;22.552;2022-10-22T16:06:31;39.25;;;25.42;;
42964;SDS011;28604;51.204;22.552;2022-10-22T16:09:03;43.35;;;27.70;;
42964;SDS011;28604;51.204;22.552;2022-10-22T16:11:34;52.95;;;27.23;;
42964;SDS011;28604;51.204;22.552;2022-10-22T16:14:01;41.90;;;25.27;;
42964;SDS011;28604;51.204;22.552;2022-10-22T16:16:29;47.60;;;29.80;;
42964;SDS011;28604;51.204;22.552;2022-10-22T16:18:57;48.13;;;29.50;;
42964;SDS011;28604;51.204;22.552;2022-10-22T16:21:23;45.00;;;28.80;;
42964;SDS011;28604;51.204;22.552;2022-10-22T16:23:50;48.58;;;27.98;;